createdAt,value
2016-06-29T00:00:38.751Z,14.5
2016-06-29T00:01:38.776Z,14.6
2016-06-29T00:04:38.852Z,14.64
2016-06-29T00:05:53.724Z,14.54
2016-06-29T00:06:39.491Z,14.54
2016-06-29T00:07:38.909Z,14.61
2016-06-29T00:08:38.929Z,14.46
2016-06-29T00:09:38.998Z,14.54
2016-06-29T00:10:38.987Z,14.45
2016-06-29T00:11:39.606Z,14.46
2016-06-29T00:12:39.025Z,14.52
2016-06-29T00:13:39.043Z,14.47
2016-06-29T00:14:39.696Z,14.54
2016-06-29T00:15:39.111Z,14.52
2016-06-29T00:16:39.126Z,14.62
2016-06-29T00:17:39.152Z,14.64
2016-06-29T00:18:54.102Z,14.61
2016-06-29T00:19:54.077Z,14.65
2016-06-29T00:20:54.103Z,14.65
2016-06-29T00:21:39.288Z,14.6
2016-06-29T00:22:39.271Z,14.64
2016-06-29T00:23:39.932Z,14.57
2016-06-29T00:24:54.197Z,14.58
2016-06-29T00:25:38.742Z,14.64
2016-06-29T00:26:39.400Z,14.64
2016-06-29T00:27:39.422Z,14.6
2016-06-29T00:28:40.046Z,14.58
2016-06-29T00:29:40.071Z,14.64
2016-06-29T00:30:39.474Z,14.64
2016-06-29T00:31:54.378Z,14.65
2016-06-29T00:32:39.523Z,14.65
2016-06-29T00:34:40.245Z,14.61
2016-06-29T00:35:39.607Z,14.69
2016-06-29T00:36:39.013Z,14.51
2016-06-29T00:37:39.659Z,14.54
2016-06-29T00:38:39.663Z,14.51
2016-06-29T00:39:39.712Z,14.5
2016-06-29T00:40:39.127Z,14.47
2016-06-29T00:41:40.371Z,14.4
2016-06-29T00:42:39.774Z,14.46
2016-06-29T00:43:40.405Z,14.43
2016-06-29T00:45:40.448Z,14.37
2016-06-29T00:46:40.467Z,14.4
2016-06-29T00:48:39.945Z,14.47
2016-06-29T00:49:39.931Z,14.51
2016-06-29T00:50:39.975Z,14.52
2016-06-29T00:51:40.014Z,14.55
2016-06-29T00:52:54.890Z,14.55
2016-06-29T00:53:40.039Z,14.52
2016-06-29T00:54:40.682Z,14.52
2016-06-29T00:55:40.088Z,14.55
2016-06-29T00:56:40.743Z,14.51
2016-06-29T00:57:40.145Z,14.51
2016-06-29T00:58:40.167Z,14.55
2016-06-29T00:59:40.203Z,14.5
2016-06-29T01:00:40.212Z,14.51
2016-06-29T01:01:40.256Z,14.6
2016-06-29T01:02:39.677Z,14.57
2016-06-29T01:03:55.184Z,14.52
2016-06-29T01:04:40.922Z,14.68
2016-06-29T01:05:55.212Z,14.69
2016-06-29T01:06:40.362Z,14.6
2016-06-29T01:07:40.382Z,14.65
2016-06-29T01:08:55.289Z,14.65
2016-06-29T01:09:40.438Z,14.77
2016-06-29T01:10:54.721Z,14.64
2016-06-29T01:11:40.473Z,14.65
2016-06-29T01:12:39.897Z,14.65
2016-06-29T01:13:40.538Z,14.68
2016-06-29T01:14:40.572Z,14.64
2016-06-29T01:16:40.000Z,14.65
2016-06-29T01:17:40.632Z,14.62
2016-06-29T01:18:41.275Z,14.6
2016-06-29T01:20:41.327Z,14.6
2016-06-29T01:21:40.184Z,14.62
2016-06-29T01:22:40.770Z,14.62
2016-06-29T01:23:40.796Z,14.62
2016-06-29T01:24:55.067Z,14.6
2016-06-29T01:25:40.211Z,14.52
2016-06-29T01:26:40.865Z,14.51
2016-06-29T01:27:40.254Z,14.5
2016-06-29T01:28:40.279Z,14.52
2016-06-29T01:29:41.534Z,14.62
2016-06-29T01:30:40.345Z,14.64
2016-06-29T01:31:40.979Z,14.65
2016-06-29T01:32:55.275Z,14.51
2016-06-29T01:33:41.033Z,14.61
2016-06-29T01:34:40.445Z,14.51
2016-06-29T01:35:41.687Z,14.52
2016-06-29T01:36:41.711Z,14.55
2016-06-29T01:37:41.123Z,14.6
2016-06-29T01:38:41.146Z,14.52
2016-06-29T01:39:40.573Z,14.58
2016-06-29T01:40:55.457Z,14.57
2016-06-29T01:41:41.217Z,14.69
2016-06-29T01:42:41.227Z,14.65
2016-06-29T01:43:41.260Z,14.64
2016-06-29T01:46:41.975Z,14.62
2016-06-29T01:47:41.973Z,14.6
2016-06-29T01:48:40.794Z,14.64
2016-06-29T01:49:41.403Z,14.73
2016-06-29T01:50:41.437Z,14.61
2016-06-29T01:52:41.486Z,14.81
2016-06-29T01:53:42.115Z,14.89
2016-06-29T01:54:42.138Z,14.83
2016-06-29T01:55:56.439Z,14.89
2016-06-29T01:56:40.971Z,14.94
2016-06-29T01:57:41.608Z,14.92
2016-06-29T01:58:41.031Z,14.89
2016-06-29T01:59:42.284Z,14.89
2016-06-29T02:01:41.099Z,14.99
2016-06-29T02:02:42.357Z,14.92
2016-06-29T02:03:41.143Z,14.83
2016-06-29T02:04:41.783Z,14.83
2016-06-29T02:05:42.418Z,14.88
2016-06-29T02:06:42.435Z,14.94
2016-06-29T02:07:41.848Z,14.88
2016-06-29T02:08:42.478Z,14.91
2016-06-29T02:09:41.900Z,14.92
2016-06-29T02:10:56.811Z,14.92
2016-06-29T02:11:41.350Z,14.95
2016-06-29T02:12:42.578Z,14.95
2016-06-29T02:13:41.385Z,14.99
2016-06-29T02:14:56.901Z,14.99
2016-06-29T02:16:42.704Z,15.06
2016-06-29T02:17:41.486Z,14.98
2016-06-29T02:18:42.115Z,15.01
2016-06-29T02:19:42.749Z,14.99
2016-06-29T02:20:42.177Z,14.98
2016-06-29T02:21:42.201Z,15.01
2016-06-29T02:22:42.215Z,15.1
2016-06-29T02:23:42.239Z,15.09
2016-06-29T02:24:42.254Z,15.1
2016-06-29T02:25:42.303Z,15.14
2016-06-29T02:26:42.307Z,15.17
2016-06-29T02:27:57.224Z,15.16
2016-06-29T02:28:41.755Z,15.09
2016-06-29T02:29:42.419Z,15.09
2016-06-29T02:30:42.414Z,15.11
2016-06-29T02:31:41.829Z,15.16
2016-06-29T02:32:41.858Z,15.25
2016-06-29T02:33:41.897Z,15.19
2016-06-29T02:34:41.891Z,15.25
2016-06-29T02:35:43.147Z,15.32
2016-06-29T02:36:41.957Z,15.38
2016-06-29T02:37:43.207Z,15.34
2016-06-29T02:38:42.014Z,15.38
2016-06-29T02:39:42.643Z,15.5
2016-06-29T02:40:42.661Z,15.46
2016-06-29T02:41:43.279Z,15.46
2016-06-29T02:42:42.099Z,15.38
2016-06-29T02:43:57.619Z,15.47
2016-06-29T02:44:57.635Z,15.43
2016-06-29T02:45:42.791Z,15.46
2016-06-29T02:46:57.686Z,15.41
2016-06-29T02:47:42.822Z,15.43
2016-06-29T02:48:42.860Z,15.47
2016-06-29T02:49:43.491Z,15.41
2016-06-29T02:50:43.514Z,15.36
2016-06-29T02:51:43.546Z,15.5
2016-06-29T02:52:43.555Z,15.43
2016-06-29T02:53:42.371Z,15.46
2016-06-29T02:54:43.006Z,15.39
2016-06-29T02:55:43.654Z,15.35
2016-06-29T02:56:43.077Z,15.51
2016-06-29T02:57:42.476Z,15.41
2016-06-29T02:58:57.982Z,15.43
2016-06-29T02:59:58.032Z,15.47
2016-06-29T03:01:43.171Z,15.44
2016-06-29T03:02:57.467Z,15.44
2016-06-29T03:03:43.825Z,15.41
2016-06-29T03:04:43.259Z,15.47
2016-06-29T03:05:43.883Z,15.49
2016-06-29T03:06:43.291Z,15.47
2016-06-29T03:07:42.730Z,15.46
2016-06-29T03:08:43.354Z,15.47
2016-06-29T03:09:43.978Z,15.46
2016-06-29T03:10:43.999Z,15.5
2016-06-29T03:11:42.826Z,15.51
2016-06-29T03:12:57.722Z,15.51
2016-06-29T03:13:43.471Z,15.51
2016-06-29T03:14:43.525Z,15.53
2016-06-29T03:15:57.791Z,15.53
2016-06-29T03:16:42.937Z,15.46
2016-06-29T03:17:43.575Z,15.53
2016-06-29T03:18:43.593Z,15.56
2016-06-29T03:19:43.021Z,15.54
2016-06-29T03:20:43.645Z,15.56
2016-06-29T03:21:43.073Z,15.6
2016-06-29T03:22:43.095Z,15.64
2016-06-29T03:23:43.716Z,15.53
2016-06-29T03:24:43.126Z,15.68
2016-06-29T03:25:43.165Z,15.67
2016-06-29T03:26:43.191Z,15.65
2016-06-29T03:27:44.433Z,15.72
2016-06-29T03:28:58.739Z,15.71
2016-06-29T03:29:43.250Z,15.72
2016-06-29T03:30:58.769Z,15.74
2016-06-29T03:31:58.810Z,15.65
2016-06-29T03:32:58.814Z,15.69
2016-06-29T03:33:43.966Z,15.74
2016-06-29T03:34:43.376Z,15.74
2016-06-29T03:35:44.011Z,15.83
2016-06-29T03:36:44.650Z,15.74
2016-06-29T03:37:44.057Z,15.83
2016-06-29T03:38:44.706Z,15.84
2016-06-29T03:39:44.107Z,15.82
2016-06-29T03:40:58.394Z,15.9
2016-06-29T03:42:43.574Z,15.83
2016-06-29T03:43:58.493Z,15.9
2016-06-29T03:44:44.282Z,15.84
2016-06-29T03:45:44.264Z,15.83
2016-06-29T03:46:44.307Z,15.93
2016-06-29T03:47:44.314Z,15.94
2016-06-29T03:48:44.966Z,15.94
2016-06-29T03:49:44.975Z,16
2016-06-29T03:50:58.646Z,16.01
2016-06-29T03:52:44.430Z,15.93
2016-06-29T03:53:44.476Z,15.97
2016-06-29T03:54:43.881Z,15.94
2016-06-29T03:55:44.496Z,16
2016-06-29T03:56:45.139Z,15.87
2016-06-29T03:57:44.554Z,15.83
2016-06-29T03:58:45.187Z,15.86
2016-06-29T03:59:44.619Z,15.8
2016-06-29T04:00:44.636Z,15.65
2016-06-29T04:01:44.654Z,15.69
2016-06-29T04:03:44.701Z,15.68
2016-06-29T04:04:44.739Z,15.53
2016-06-29T04:05:44.754Z,15.56
2016-06-29T04:06:45.392Z,15.47
2016-06-29T04:07:45.431Z,15.46
2016-06-29T04:08:45.438Z,15.38
2016-06-29T04:09:45.486Z,15.44
2016-06-29T04:10:44.878Z,15.39
2016-06-29T04:11:44.900Z,15.39
2016-06-29T04:13:45.575Z,15.34
2016-06-29T04:14:45.627Z,15.31
2016-06-29T04:15:44.990Z,15.31
2016-06-29T04:16:44.435Z,15.29
2016-06-29T04:17:45.696Z,15.29
2016-06-29T04:18:59.976Z,15.21
2016-06-29T04:19:45.114Z,15.27
2016-06-29T04:20:45.149Z,15.29
2016-06-29T04:21:45.172Z,15.27
2016-06-29T04:22:44.585Z,15.35
2016-06-29T04:23:45.218Z,15.17
2016-06-29T04:24:45.256Z,15.29
2016-06-29T04:25:45.272Z,15.28
2016-06-29T04:26:59.549Z,15.35
2016-06-29T04:27:44.699Z,15.19
2016-06-29T04:28:45.368Z,15.27
2016-06-29T04:29:46.180Z,15.27
2016-06-29T04:30:45.991Z,15.27
2016-06-29T04:31:45.382Z,15.21
2016-06-29T04:32:45.438Z,15.29
2016-06-29T04:33:59.706Z,15.2
2016-06-29T04:34:59.740Z,15.2
2016-06-29T04:35:46.101Z,15.31
2016-06-29T04:36:46.125Z,15.21
2016-06-29T04:37:44.919Z,15.27
2016-06-29T04:38:46.177Z,15.31
2016-06-29T04:39:45.579Z,15.35
2016-06-29T04:40:45.613Z,15.27
2016-06-29T04:41:46.250Z,15.29
2016-06-29T04:42:45.705Z,15.27
2016-06-29T04:44:00.569Z,15.31
2016-06-29T04:44:45.700Z,15.29
2016-06-29T04:45:46.354Z,15.31
2016-06-29T04:46:46.394Z,15.38
2016-06-29T04:47:45.179Z,15.41
2016-06-29T04:48:45.822Z,15.46
2016-06-29T04:49:45.827Z,15.47
2016-06-29T04:51:00.128Z,15.49
2016-06-29T04:52:00.151Z,15.47
2016-06-29T04:52:45.920Z,15.46
2016-06-29T04:54:46.566Z,15.43
2016-06-29T04:56:45.390Z,15.51
2016-06-29T04:57:46.030Z,15.54
2016-06-29T04:58:46.663Z,15.56
2016-06-29T04:59:45.467Z,15.53
2016-06-29T05:00:45.492Z,15.47
2016-06-29T05:01:46.738Z,15.59
2016-06-29T05:02:46.168Z,15.6
2016-06-29T05:03:46.208Z,15.64
2016-06-29T05:04:46.209Z,15.59
2016-06-29T05:06:00.495Z,15.71
2016-06-29T05:06:46.239Z,15.69
2016-06-29T05:07:46.896Z,15.74
2016-06-29T05:08:46.296Z,15.83
2016-06-29T05:10:01.197Z,15.89
2016-06-29T05:10:45.756Z,15.83
2016-06-29T05:11:46.351Z,15.89
2016-06-29T05:12:46.395Z,15.86
2016-06-29T05:13:46.425Z,15.86
2016-06-29T05:14:46.443Z,15.94
2016-06-29T05:15:46.487Z,16.01
2016-06-29T05:17:45.915Z,16.11
2016-06-29T05:18:45.938Z,16.08
2016-06-29T05:19:47.180Z,16.23
2016-06-29T05:20:45.983Z,16.21
2016-06-29T05:21:46.674Z,16.35
2016-06-29T05:23:46.663Z,16.35
2016-06-29T05:24:46.690Z,16.33
2016-06-29T05:26:46.749Z,16.56
2016-06-29T05:27:47.371Z,16.57
2016-06-29T05:28:46.788Z,16.64
2016-06-29T05:30:01.106Z,16.63
2016-06-29T05:30:47.455Z,16.76
2016-06-29T05:31:46.257Z,16.88
2016-06-29T05:32:46.894Z,16.82
2016-06-29T05:33:46.921Z,16.96
2016-06-29T05:34:46.329Z,17.12
2016-06-29T05:35:46.957Z,17.56
2016-06-29T05:36:47.599Z,17.62
2016-06-29T05:38:01.893Z,17.81
2016-06-29T05:38:47.037Z,17.96
2016-06-29T05:39:47.687Z,17.95
2016-06-29T05:40:46.475Z,18.27
2016-06-29T05:42:01.378Z,19
2016-06-29T05:42:47.769Z,19.62
2016-06-29T05:43:47.164Z,20.2
2016-06-29T05:44:47.185Z,21.24
2016-06-29T05:47:47.883Z,20.92
2016-06-29T05:48:47.906Z,20.57
2016-06-29T05:49:47.924Z,20.29
2016-06-29T05:51:46.782Z,20.13
2016-06-29T05:53:02.273Z,19.87
2016-06-29T05:54:02.303Z,19.68
2016-06-29T05:54:47.461Z,19.5
2016-06-29T05:55:46.860Z,19.39
2016-06-29T05:56:47.497Z,19.31
2016-06-29T05:57:47.529Z,19.16
2016-06-29T05:59:47.639Z,19.18
2016-06-29T06:00:48.226Z,19.1
2016-06-29T06:01:47.651Z,19
2016-06-29T06:03:47.682Z,19.28
2016-06-29T06:05:48.343Z,20.41
2016-06-29T06:06:47.166Z,20.7
2016-06-29T06:07:47.798Z,20.59
2016-06-29T06:08:48.437Z,20.42
2016-06-29T06:10:02.122Z,20.24
2016-06-29T06:10:47.861Z,20.26
2016-06-29T06:11:47.886Z,20.01
2016-06-29T06:12:47.916Z,19.74
2016-06-29T06:13:47.330Z,19.73
2016-06-29T06:14:47.363Z,19.76
2016-06-29T06:16:02.293Z,19.76
2016-06-29T06:16:48.039Z,19.65
2016-06-29T06:17:48.065Z,19.71
2016-06-29T06:18:47.470Z,19.68
2016-06-29T06:19:48.125Z,19.69
2016-06-29T06:20:48.138Z,19.78
2016-06-29T06:21:47.546Z,19.71
2016-06-29T06:22:48.178Z,19.76
2016-06-29T06:23:48.212Z,19.92
2016-06-29T06:26:02.584Z,20.62
2016-06-29T06:26:48.289Z,20.7
2016-06-29T06:27:47.717Z,20.61
2016-06-29T06:28:47.734Z,20.58
2016-06-29T06:29:49.005Z,20.69
2016-06-29T06:30:49.027Z,20.8
2016-06-29T06:31:49.047Z,20.89
2016-06-29T06:32:48.445Z,20.95
2016-06-29T06:33:49.132Z,20.95
2016-06-29T06:34:48.499Z,20.82
2016-06-29T06:35:48.532Z,20.67
2016-06-29T06:36:48.557Z,20.7
2016-06-29T06:38:49.233Z,20.39
2016-06-29T06:39:49.252Z,20.28
2016-06-29T06:41:03.542Z,20.29
2016-06-29T06:41:48.680Z,20.31
2016-06-29T06:42:48.722Z,20.29
2016-06-29T06:43:48.747Z,20.48
2016-06-29T06:44:49.412Z,20.24
2016-06-29T06:45:48.185Z,20.32
2016-06-29T06:46:48.826Z,20.29
2016-06-29T06:47:48.842Z,20.32
2016-06-29T06:49:03.754Z,20.48
2016-06-29T06:49:49.507Z,20.57
2016-06-29T06:50:48.922Z,20.67
2016-06-29T06:51:49.553Z,20.8
2016-06-29T06:52:48.374Z,21.13
2016-06-29T06:53:49.619Z,21.47
2016-06-29T06:55:49.056Z,23.69
2016-06-29T06:56:49.079Z,24.13
2016-06-29T06:57:48.500Z,25.06
2016-06-29T06:58:49.138Z,25.7
2016-06-29T06:59:49.183Z,26.32
2016-06-29T07:00:49.192Z,26.05
2016-06-29T07:01:49.216Z,25.25
2016-06-29T07:02:49.323Z,24.55
2016-06-29T07:03:49.276Z,24.39
2016-06-29T07:05:49.949Z,23.57
2016-06-29T07:06:49.979Z,23.38
2016-06-29T07:07:49.385Z,23.16
2016-06-29T07:09:50.047Z,22.94
2016-06-29T07:10:48.868Z,22.94
2016-06-29T07:11:50.121Z,23.27
2016-06-29T07:13:03.806Z,23.31
2016-06-29T07:14:49.591Z,22.75
2016-06-29T07:15:50.223Z,22.8
2016-06-29T07:16:49.654Z,22.72
2016-06-29T07:17:49.668Z,22.65
2016-06-29T07:18:50.309Z,22.55
2016-06-29T07:19:49.745Z,22.55
2016-06-29T07:20:49.154Z,22.49
2016-06-29T07:21:49.198Z,22.21
2016-06-29T07:22:49.812Z,22.07
2016-06-29T07:23:49.287Z,22.12
2016-06-29T07:24:49.259Z,22.15
2016-06-29T07:26:04.176Z,22.15
2016-06-29T07:26:49.974Z,21.96
2016-06-29T07:27:49.963Z,21.84
2016-06-29T07:29:04.250Z,21.82
2016-06-29T07:29:50.014Z,21.88
2016-06-29T07:30:50.655Z,22.06
2016-06-29T07:31:50.120Z,21.99
2016-06-29T07:32:50.103Z,22
2016-06-29T07:33:49.509Z,22.02
2016-06-29T07:34:50.758Z,21.98
2016-06-29T07:35:50.186Z,22.07
2016-06-29T07:36:50.206Z,22.14
2016-06-29T07:37:50.223Z,22.15
2016-06-29T07:38:50.256Z,22.1
2016-06-29T07:39:50.299Z,22.27
2016-06-29T07:40:50.930Z,22.22
2016-06-29T07:41:50.972Z,22.39
2016-06-29T07:43:04.655Z,22.58
2016-06-29T07:43:50.416Z,22.65
2016-06-29T07:45:04.693Z,22.72
2016-06-29T07:45:51.062Z,22.86
2016-06-29T07:46:50.497Z,23.04
2016-06-29T07:48:05.376Z,23.23
2016-06-29T07:48:51.160Z,23.42
2016-06-29T07:49:51.175Z,23.55
2016-06-29T07:50:49.984Z,23.73
2016-06-29T07:51:50.615Z,23.98
2016-06-29T07:52:50.639Z,24.73
2016-06-29T07:54:51.299Z,26.28
2016-06-29T07:55:50.726Z,26.29
2016-06-29T07:56:51.366Z,26.09
2016-06-29T07:57:50.179Z,26.02
2016-06-29T07:58:50.207Z,25.92
2016-06-29T07:59:51.454Z,26.43
2016-06-29T08:01:05.746Z,26.92
2016-06-29T08:02:50.925Z,27.02
2016-06-29T08:03:50.347Z,26.88
2016-06-29T08:04:50.992Z,27.21
2016-06-29T08:05:51.012Z,27.07
2016-06-29T08:06:51.689Z,26.63
2016-06-29T08:07:51.677Z,26.82
2016-06-29T08:08:51.115Z,27.04
2016-06-29T08:09:51.139Z,27.28
2016-06-29T08:10:51.165Z,27.57
2016-06-29T08:11:51.802Z,27.46
2016-06-29T08:12:51.844Z,27.79
2016-06-29T08:13:51.863Z,27.7
2016-06-29T08:15:06.165Z,27.06
2016-06-29T08:16:06.218Z,26.52
2016-06-29T08:17:51.394Z,27.62
2016-06-29T08:18:52.030Z,28.12
2016-06-29T08:19:52.066Z,28.49
2016-06-29T08:20:52.089Z,29.11
2016-06-29T08:21:51.521Z,29.58
2016-06-29T08:22:52.142Z,29.94
2016-06-29T08:23:50.955Z,30.19
2016-06-29T08:24:51.609Z,30.61
2016-06-29T08:25:52.242Z,30.11
2016-06-29T08:26:52.273Z,29.52
2016-06-29T08:27:51.102Z,28.9
2016-06-29T08:28:51.727Z,28.39
2016-06-29T08:29:51.802Z,27.66
2016-06-29T08:30:51.177Z,27.46
2016-06-29T08:31:51.194Z,27.94
2016-06-29T08:32:51.844Z,28.29
2016-06-29T08:33:51.879Z,28.46
2016-06-29T08:34:51.913Z,28.96
2016-06-29T08:35:51.937Z,29.63
2016-06-29T08:36:51.959Z,30.1
2016-06-29T08:37:52.616Z,30.42
2016-06-29T08:39:06.305Z,30.77
2016-06-29T08:39:52.059Z,30.91
2016-06-29T08:40:52.125Z,31.14
2016-06-29T08:42:52.201Z,31.81
2016-06-29T08:43:52.179Z,31.95
2016-06-29T08:44:52.831Z,31.28
2016-06-29T08:45:52.244Z,31.17
2016-06-29T08:46:52.883Z,31.38
2016-06-29T08:48:07.191Z,31.02
2016-06-29T08:48:52.347Z,31.16
2016-06-29T08:50:06.635Z,31.35
2016-06-29T08:50:52.398Z,31.53
2016-06-29T08:51:51.830Z,31.57
2016-06-29T08:52:52.460Z,31.62
2016-06-29T08:53:53.112Z,31.57
2016-06-29T08:54:53.149Z,31.21
2016-06-29T08:55:52.577Z,30.98
2016-06-29T08:56:52.594Z,30.53
2016-06-29T08:58:52.661Z,31.07
2016-06-29T08:59:52.070Z,31.29
2016-06-29T09:01:52.138Z,30.37
2016-06-29T09:02:52.180Z,29.98
2016-06-29T09:04:07.736Z,29.85
2016-06-29T09:04:53.458Z,29.68
2016-06-29T09:05:52.262Z,29.49
2016-06-29T09:06:53.517Z,29.87
2016-06-29T09:07:52.944Z,30.64
2016-06-29T09:08:52.981Z,31.35
2016-06-29T09:09:53.624Z,31.85
2016-06-29T09:10:53.035Z,31.92
2016-06-29T09:11:53.062Z,31.95
2016-06-29T09:12:53.101Z,31.32
2016-06-29T09:13:53.139Z,30.88
2016-06-29T09:14:53.774Z,29.86
2016-06-29T09:15:52.610Z,29.49
2016-06-29T09:16:53.234Z,29
2016-06-29T09:17:53.863Z,28.77
2016-06-29T09:18:53.916Z,28.44
2016-06-29T09:20:07.590Z,28.24
2016-06-29T09:20:53.374Z,28.09
2016-06-29T09:21:53.389Z,27.9
2016-06-29T09:22:54.017Z,27.65
2016-06-29T09:23:52.844Z,27.66
2016-06-29T09:24:54.093Z,27.6
2016-06-29T09:25:52.891Z,27.43
2016-06-29T09:26:52.922Z,27.43
2016-06-29T09:27:54.174Z,27.41
2016-06-29T09:28:53.588Z,27.31
2016-06-29T09:29:54.251Z,26.97
2016-06-29T09:30:54.276Z,27.12
2016-06-29T09:31:53.683Z,27.31
2016-06-29T09:32:53.714Z,27.47
2016-06-29T09:34:54.392Z,27.62
2016-06-29T09:36:08.697Z,27.55
2016-06-29T09:36:53.840Z,27.6
2016-06-29T09:37:54.478Z,27.78
2016-06-29T09:38:53.911Z,28
2016-06-29T09:39:53.371Z,28.54
2016-06-29T09:40:53.979Z,28.8
2016-06-29T09:43:54.659Z,29.8
2016-06-29T09:44:54.100Z,30.26
2016-06-29T09:45:53.492Z,29.95
2016-06-29T09:47:54.782Z,28.81
2016-06-29T09:48:53.585Z,28.06
2016-06-29T09:49:54.835Z,27.81
2016-06-29T09:51:09.142Z,27.99
2016-06-29T09:51:54.292Z,27.67
2016-06-29T09:52:53.710Z,27.75
2016-06-29T09:53:54.953Z,27.75
2016-06-29T09:54:54.395Z,27.67
2016-06-29T09:55:55.006Z,27.55
2016-06-29T09:56:55.040Z,27.27
2016-06-29T09:57:53.876Z,26.94
2016-06-29T09:58:55.103Z,26.65
2016-06-29T09:59:54.527Z,26.33
2016-06-29T10:00:53.967Z,26.3
2016-06-29T10:01:55.196Z,26.05
2016-06-29T10:02:55.223Z,26.05
2016-06-29T10:03:54.644Z,26.12
2016-06-29T10:04:55.280Z,25.83
2016-06-29T10:05:55.318Z,25.85
2016-06-29T10:06:54.731Z,25.69
2016-06-29T10:08:55.402Z,25.58
2016-06-29T10:09:55.419Z,25.55
2016-06-29T10:10:54.874Z,25.69
2016-06-29T10:11:54.882Z,25.57
2016-06-29T10:12:54.911Z,25.61
2016-06-29T10:13:54.939Z,25.39
2016-06-29T10:14:54.974Z,25.24
2016-06-29T10:15:55.011Z,25.18
2016-06-29T10:16:55.028Z,24.91
2016-06-29T10:17:55.062Z,24.8
2016-06-29T10:18:55.688Z,24.8
2016-06-29T10:19:55.726Z,24.28
2016-06-29T10:20:55.747Z,24.15
2016-06-29T10:21:55.165Z,23.88
2016-06-29T10:23:10.079Z,23.78
2016-06-29T10:23:55.232Z,23.66
2016-06-29T10:25:55.282Z,24.03
2016-06-29T10:26:55.305Z,24.25
2016-06-29T10:27:55.329Z,24.46
2016-06-29T10:28:55.364Z,24.5
2016-06-29T10:29:55.386Z,24.5
2016-06-29T10:31:56.058Z,24.77
2016-06-29T10:32:55.511Z,25.14
2016-06-29T10:33:55.511Z,25.35
2016-06-29T10:34:56.142Z,25.6
2016-06-29T10:35:55.568Z,25.7
2016-06-29T10:36:54.978Z,25.94
2016-06-29T10:38:10.499Z,26.02
2016-06-29T10:39:09.944Z,26.32
2016-06-29T10:39:56.290Z,26.29
2016-06-29T10:40:55.713Z,26.45
2016-06-29T10:41:55.136Z,26.73
2016-06-29T10:43:10.027Z,26.6
2016-06-29T10:44:55.822Z,26.88
2016-06-29T10:45:55.852Z,26.69
2016-06-29T10:46:55.271Z,26.63
2016-06-29T10:47:55.307Z,26.92
2016-06-29T10:48:55.946Z,27.07
2016-06-29T10:49:56.578Z,27.31
2016-06-29T10:50:56.054Z,27.51
2016-06-29T10:51:56.660Z,27.74
2016-06-29T10:53:55.490Z,28.36
2016-06-29T10:55:10.996Z,28.55
2016-06-29T10:55:56.757Z,28.33
2016-06-29T10:56:56.168Z,28.46
2016-06-29T10:57:56.822Z,28.36
2016-06-29T10:58:56.234Z,28.22
2016-06-29T10:59:56.871Z,28.56
2016-06-29T11:00:55.704Z,28.06
2016-06-29T11:01:56.948Z,27.81
2016-06-29T11:02:55.758Z,27.69
2016-06-29T11:03:56.388Z,27.87
2016-06-29T11:05:10.687Z,27.7
2016-06-29T11:05:57.062Z,27.72
2016-06-29T11:06:56.472Z,27.67
2016-06-29T11:07:56.507Z,27.32
2016-06-29T11:08:56.542Z,27.13
2016-06-29T11:09:57.186Z,27.03
2016-06-29T11:11:11.498Z,27.02
2016-06-29T11:11:56.622Z,27.1
2016-06-29T11:12:57.262Z,27.09
2016-06-29T11:13:57.283Z,27.22
2016-06-29T11:14:56.773Z,27.46
2016-06-29T11:15:57.361Z,27.54
2016-06-29T11:16:57.381Z,27.34
2016-06-29T11:17:57.413Z,27.19
2016-06-29T11:18:56.825Z,27.28
2016-06-29T11:19:56.853Z,27.18
2016-06-29T11:21:11.789Z,27.31
2016-06-29T11:21:56.961Z,27.22
2016-06-29T11:22:56.937Z,27.24
2016-06-29T11:23:57.018Z,27.25
2016-06-29T11:24:57.621Z,27.47
2016-06-29T11:26:11.313Z,27.54
2016-06-29T11:26:57.067Z,27.62
2016-06-29T11:27:56.519Z,27.57
2016-06-29T11:28:56.509Z,27.62
2016-06-29T11:29:57.163Z,27.81
2016-06-29T11:30:57.185Z,27.72
2016-06-29T11:32:57.246Z,27.77
2016-06-29T11:33:57.262Z,27.78
2016-06-29T11:34:57.916Z,27.85
2016-06-29T11:35:57.949Z,27.67
2016-06-29T11:36:57.955Z,27.41
2016-06-29T11:37:56.786Z,27.65
2016-06-29T11:38:58.026Z,27.85
2016-06-29T11:39:57.457Z,27.88
2016-06-29T11:40:57.479Z,27.87
2016-06-29T11:41:57.521Z,27.78
2016-06-29T11:42:57.540Z,27.78
2016-06-29T11:43:58.191Z,27.87
2016-06-29T11:44:57.612Z,27.84
2016-06-29T11:45:58.244Z,27.97
2016-06-29T11:46:58.253Z,27.94
2016-06-29T11:47:57.688Z,28.09
2016-06-29T11:48:58.316Z,27.79
2016-06-29T11:49:58.352Z,27.85
2016-06-29T11:50:57.763Z,28.09
2016-06-29T11:51:57.188Z,28.09
2016-06-29T11:53:57.861Z,27.85
2016-06-29T11:54:58.503Z,27.69
2016-06-29T11:55:57.923Z,27.79
2016-06-29T11:56:57.337Z,27.67
2016-06-29T11:58:12.243Z,27.74
2016-06-29T11:58:58.614Z,27.65
2016-06-29T11:59:58.039Z,27.7
2016-06-29T12:00:58.689Z,27.7
2016-06-29T12:02:12.370Z,27.7
2016-06-29T12:02:58.732Z,27.82
2016-06-29T12:03:58.760Z,28.02
2016-06-29T12:04:58.791Z,28.12
2016-06-29T12:05:58.207Z,28.37
2016-06-29T12:06:58.844Z,28.21
2016-06-29T12:07:58.881Z,27.87
2016-06-29T12:08:58.905Z,27.87
2016-06-29T12:09:58.324Z,27.97
2016-06-29T12:10:58.354Z,27.81
2016-06-29T12:11:57.788Z,27.7
2016-06-29T12:12:57.803Z,27.75
2016-06-29T12:14:12.717Z,27.54
2016-06-29T12:14:58.474Z,27.43
2016-06-29T12:15:59.107Z,27.32
2016-06-29T12:16:58.525Z,27.41
2016-06-29T12:17:57.938Z,27.4
2016-06-29T12:19:12.845Z,27.63
2016-06-29T12:19:59.212Z,27.67
2016-06-29T12:20:58.035Z,27.87
2016-06-29T12:21:58.669Z,28.17
2016-06-29T12:22:58.081Z,28.48
2016-06-29T12:23:58.116Z,28.52
2016-06-29T12:24:59.358Z,28.29
2016-06-29T12:25:59.409Z,28.31
2016-06-29T12:26:59.439Z,28.48
2016-06-29T12:27:59.462Z,28.61
2016-06-29T12:29:13.147Z,28.56
2016-06-29T12:30:13.796Z,28.67
2016-06-29T12:31:13.199Z,28.34
2016-06-29T12:31:59.577Z,28.37
2016-06-29T12:32:59.608Z,28.34
2016-06-29T12:33:59.022Z,28.34
2016-06-29T12:34:59.103Z,28.44
2016-06-29T12:35:59.088Z,28.67
2016-06-29T12:36:59.733Z,28.67
2016-06-29T12:37:59.143Z,28.58
2016-06-29T12:38:59.786Z,28.61
2016-06-29T12:39:59.214Z,28.68
2016-06-29T12:41:14.102Z,28.8
2016-06-29T12:41:58.642Z,28.83
2016-06-29T12:42:58.666Z,29.04
2016-06-29T12:43:59.315Z,29.06
2016-06-29T12:44:59.340Z,28.96
2016-06-29T12:46:59.435Z,28.89
2016-06-29T12:47:59.447Z,29.26
2016-06-29T12:49:00.066Z,29.37
2016-06-29T12:49:58.888Z,29.09
2016-06-29T12:51:00.129Z,29.05
2016-06-29T12:51:59.546Z,29.09
2016-06-29T12:52:59.583Z,29.15
2016-06-29T12:54:00.217Z,29
2016-06-29T12:55:00.247Z,28.81
2016-06-29T12:56:00.290Z,28.78
2016-06-29T12:56:59.709Z,28.74
2016-06-29T12:58:00.334Z,28.59
2016-06-29T12:59:00.354Z,28.33
2016-06-29T12:59:59.176Z,28.18
2016-06-29T13:01:14.098Z,28.3
2016-06-29T13:02:14.107Z,27.99
2016-06-29T13:02:59.255Z,28
2016-06-29T13:04:00.520Z,27.77
2016-06-29T13:05:14.808Z,27.85
2016-06-29T13:05:59.968Z,27.72
2016-06-29T13:06:59.997Z,27.85
2016-06-29T13:08:00.627Z,27.96
2016-06-29T13:09:00.062Z,28.03
2016-06-29T13:11:00.728Z,27.66
2016-06-29T13:11:59.530Z,27.84
2016-06-29T13:13:00.772Z,27.84
2016-06-29T13:14:00.837Z,27.79
2016-06-29T13:15:00.236Z,27.67
2016-06-29T13:16:14.522Z,27.59
2016-06-29T13:17:00.283Z,27.39
2016-06-29T13:18:00.354Z,27.44
2016-06-29T13:19:00.350Z,27.5
2016-06-29T13:19:59.771Z,27.63
2016-06-29T13:20:59.811Z,27.43
2016-06-29T13:22:00.434Z,27.66
2016-06-29T13:23:01.083Z,27.69
2016-06-29T13:24:01.095Z,27.77
2016-06-29T13:25:00.518Z,27.84
2016-06-29T13:25:59.953Z,28
2016-06-29T13:27:00.572Z,28.18
2016-06-29T13:28:01.222Z,28.22
2016-06-29T13:30:00.701Z,28.18
2016-06-29T13:31:01.309Z,28.18
2016-06-29T13:32:00.727Z,28.12
2016-06-29T13:33:15.036Z,27.92
2016-06-29T13:34:15.052Z,27.79
2016-06-29T13:35:00.201Z,27.82
2016-06-29T13:36:00.227Z,27.87
2016-06-29T13:37:00.271Z,27.67
2016-06-29T13:38:00.903Z,27.7
2016-06-29T13:39:00.934Z,27.46
2016-06-29T13:41:00.981Z,27.41
2016-06-29T13:42:01.010Z,27.44
2016-06-29T13:43:00.448Z,27.43
2016-06-29T13:44:01.690Z,27.46
2016-06-29T13:45:00.491Z,27.39
2016-06-29T13:46:01.738Z,27.54
2016-06-29T13:47:01.155Z,27.66
2016-06-29T13:48:00.579Z,27.84
2016-06-29T13:49:15.487Z,27.7
2016-06-29T13:51:01.295Z,27.84
2016-06-29T13:52:01.294Z,27.94